createdAt,value
2019-01-09T00:01:29.800Z,-0.80
2019-01-09T00:03:59.285Z,-0.80
2019-01-09T00:06:28.792Z,-0.80
2019-01-09T00:08:58.247Z,-0.80
2019-01-09T00:11:27.683Z,-0.80
2019-01-09T00:13:57.176Z,-0.80
2019-01-09T00:16:26.619Z,-0.90
2019-01-09T00:18:56.313Z,-0.90
2019-01-09T00:21:25.819Z,-0.90
2019-01-09T00:23:55.293Z,-0.90
2019-01-09T00:26:24.734Z,-0.90
2019-01-09T00:28:54.248Z,-0.90
2019-01-09T00:31:23.877Z,-0.90
2019-01-09T00:33:53.485Z,-0.90
2019-01-09T00:36:22.928Z,-1.00
2019-01-09T00:38:52.365Z,-0.90
2019-01-09T00:41:21.867Z,-1.00
2019-01-09T00:43:51.305Z,-1.00
2019-01-09T00:46:20.734Z,-1.00
2019-01-09T00:48:50.230Z,-1.00
2019-01-09T00:51:19.863Z,-1.00
2019-01-09T00:53:49.294Z,-1.00
2019-01-09T00:56:18.785Z,-1.10
2019-01-09T00:58:48.233Z,-1.00
2019-01-09T01:01:17.768Z,-1.10
2019-01-09T01:04:21.689Z,-1.10
2019-01-09T01:07:23.934Z,-1.10
2019-01-09T01:10:31.260Z,-1.10
2019-01-09T01:13:46.872Z,-1.10
2019-01-09T01:16:53.309Z,-1.10
2019-01-09T01:19:47.708Z,-1.20
2019-01-09T01:23:10.333Z,-1.20
2019-01-09T01:26:18.552Z,-1.20
2019-01-09T01:29:36.789Z,-1.20
2019-01-09T01:32:29.601Z,-1.20
2019-01-09T01:35:24.707Z,-1.20
2019-01-09T01:38:27.990Z,-1.20
2019-01-09T01:41:38.573Z,-1.20
2019-01-09T01:44:30.505Z,-1.20
2019-01-09T01:47:53.118Z,-1.20
2019-01-09T01:50:52.918Z,-1.20
2019-01-09T01:54:07.056Z,-1.20
2019-01-09T01:57:19.184Z,-1.20
2019-01-09T02:00:01.086Z,-1.30
2019-01-09T02:03:06.731Z,-1.40
2019-01-09T02:06:04.334Z,-1.40
2019-01-09T02:09:02.228Z,-1.40
2019-01-09T02:12:20.830Z,-1.50
2019-01-09T02:15:35.488Z,-1.50
2019-01-09T02:18:22.354Z,-1.50
2019-01-09T02:21:19.066Z,-1.50
2019-01-09T02:24:50.970Z,-1.50
2019-01-09T02:27:57.426Z,-1.50
2019-01-09T02:31:28.972Z,-1.50
2019-01-09T02:33:58.309Z,-1.50
2019-01-09T02:36:27.695Z,-1.50
2019-01-09T02:38:56.993Z,-1.50
2019-01-09T02:41:26.364Z,-1.50
2019-01-09T02:43:55.689Z,-1.50
2019-01-09T02:46:25.047Z,-1.50
2019-01-09T02:48:54.466Z,-1.50
2019-01-09T02:51:23.945Z,-1.50
2019-01-09T02:53:53.305Z,-1.50
2019-01-09T02:56:22.639Z,-1.50
2019-01-09T02:58:52.020Z,-1.50
2019-01-09T03:01:21.322Z,-1.50
2019-01-09T03:03:50.802Z,-1.60
2019-01-09T03:06:23.182Z,-1.50
2019-01-09T03:08:51.175Z,-1.60
2019-01-09T03:11:20.542Z,-1.50
2019-01-09T03:13:49.846Z,-1.50
2019-01-09T03:16:19.203Z,-1.60
2019-01-09T03:18:48.517Z,-1.60
2019-01-09T03:21:17.880Z,-1.60
2019-01-09T03:23:47.238Z,-1.60
2019-01-09T03:26:16.652Z,-1.60
2019-01-09T03:28:45.966Z,-1.70
2019-01-09T03:31:15.440Z,-1.70
2019-01-09T03:33:44.827Z,-1.70
2019-01-09T03:36:14.164Z,-1.70
2019-01-09T03:38:43.555Z,-1.70
2019-01-09T03:41:12.874Z,-1.80
2019-01-09T03:43:42.306Z,-1.70
2019-01-09T03:46:11.614Z,-1.70
2019-01-09T03:48:40.920Z,-1.70
2019-01-09T03:51:10.288Z,-1.80
2019-01-09T03:53:39.665Z,-1.70
2019-01-09T03:56:09.059Z,-1.70
2019-01-09T03:58:38.367Z,-1.70
2019-01-09T04:01:07.689Z,-1.70
2019-01-09T04:03:37.068Z,-1.70
2019-01-09T04:06:06.401Z,-1.70
2019-01-09T04:08:35.715Z,-1.60
2019-01-09T04:11:05.143Z,-1.60
2019-01-09T04:13:34.530Z,-1.60
2019-01-09T04:16:03.986Z,-1.70
2019-01-09T04:18:33.362Z,-1.60
2019-01-09T04:21:02.686Z,-1.60
2019-01-09T04:23:32.044Z,-1.60
2019-01-09T04:26:01.352Z,-1.60
2019-01-09T04:28:30.725Z,-1.60
2019-01-09T04:31:00.032Z,-1.60
2019-01-09T04:33:29.461Z,-1.60
2019-01-09T04:35:58.770Z,-1.60
2019-01-09T04:38:28.068Z,-1.60
2019-01-09T04:40:57.394Z,-1.60
2019-01-09T04:43:26.925Z,-1.60
2019-01-09T04:45:56.268Z,-1.60
2019-01-09T04:48:25.647Z,-1.60
2019-01-09T04:50:55.025Z,-1.50
2019-01-09T04:53:24.569Z,-1.60
2019-01-09T04:55:54.008Z,-1.60
2019-01-09T04:58:23.319Z,-1.50
2019-01-09T05:00:52.635Z,-1.50
2019-01-09T05:03:22.014Z,-1.50
2019-01-09T05:05:51.343Z,-1.60
2019-01-09T05:08:20.727Z,-1.60
2019-01-09T05:10:50.146Z,-1.60
2019-01-09T05:13:19.586Z,-1.60
2019-01-09T05:15:49.007Z,-1.60
2019-01-09T05:18:18.534Z,-1.50
2019-01-09T05:20:47.946Z,-1.50
2019-01-09T05:23:17.252Z,-1.50
2019-01-09T05:25:46.602Z,-1.50
2019-01-09T05:28:15.971Z,-1.50
2019-01-09T05:30:45.326Z,-1.50
2019-01-09T05:33:14.700Z,-1.50
2019-01-09T05:35:44.111Z,-1.50
2019-01-09T05:38:13.482Z,-1.50
2019-01-09T05:40:42.831Z,-1.60
2019-01-09T05:43:12.154Z,-1.60
2019-01-09T05:45:41.492Z,-1.60
2019-01-09T05:48:10.868Z,-1.60
2019-01-09T05:50:40.206Z,-1.60
2019-01-09T05:53:09.515Z,-1.70
2019-01-09T05:55:39.037Z,-1.70
2019-01-09T05:58:08.393Z,-1.80
2019-01-09T06:00:37.763Z,-1.70
2019-01-09T06:03:07.278Z,-1.70
2019-01-09T06:05:36.667Z,-1.80
2019-01-09T06:08:05.984Z,-1.70
2019-01-09T06:10:35.623Z,-1.80
2019-01-09T06:13:05.007Z,-1.70
2019-01-09T06:15:34.309Z,-1.80
2019-01-09T06:18:03.686Z,-1.80
2019-01-09T06:20:33.006Z,-1.80
2019-01-09T06:23:02.332Z,-1.80
2019-01-09T06:25:31.698Z,-1.80
2019-01-09T06:28:01.054Z,-1.80
2019-01-09T06:30:30.695Z,-1.80
2019-01-09T06:33:00.183Z,-1.90
2019-01-09T06:35:29.487Z,-1.90
2019-01-09T06:37:58.885Z,-1.90
2019-01-09T06:40:28.361Z,-1.90
2019-01-09T06:42:57.845Z,-1.90
2019-01-09T06:45:27.320Z,-1.90
2019-01-09T06:47:56.744Z,-1.90
2019-01-09T06:50:26.178Z,-1.90
2019-01-09T06:52:55.543Z,-1.90
2019-01-09T06:55:25.294Z,-1.90
2019-01-09T06:57:54.747Z,-1.90
2019-01-09T07:00:24.157Z,-1.90
2019-01-09T07:02:53.747Z,-1.90
2019-01-09T07:05:23.161Z,-1.90
2019-01-09T07:07:52.602Z,-1.90
2019-01-09T07:10:22.027Z,-1.80
2019-01-09T07:12:51.652Z,-1.90
2019-01-09T07:15:21.253Z,-1.90
2019-01-09T07:17:50.663Z,-1.90
2019-01-09T07:20:20.079Z,-1.90
2019-01-09T07:22:49.542Z,-1.90
2019-01-09T07:25:18.998Z,-1.90
2019-01-09T07:27:48.477Z,-1.90
2019-01-09T07:30:17.894Z,-1.90
2019-01-09T07:32:47.345Z,-1.90
2019-01-09T07:35:16.798Z,-1.80
2019-01-09T07:37:46.231Z,-1.80
2019-01-09T07:40:15.679Z,-1.80
2019-01-09T07:42:45.106Z,-1.80
2019-01-09T07:45:14.554Z,-1.80
2019-01-09T07:47:44.072Z,-1.70
2019-01-09T07:50:13.562Z,-1.70
2019-01-09T07:52:42.992Z,-1.70
2019-01-09T07:55:12.477Z,-1.70
2019-01-09T07:57:41.946Z,-1.70
2019-01-09T08:00:12.380Z,-1.60
2019-01-09T08:02:41.850Z,-1.60
2019-01-09T08:05:11.260Z,-1.60
2019-01-09T08:07:40.763Z,-1.70
2019-01-09T08:10:11.035Z,-1.60
2019-01-09T08:12:40.566Z,-1.60
2019-01-09T08:15:10.393Z,-1.50
2019-01-09T08:17:39.798Z,-1.50
2019-01-09T08:20:09.683Z,-1.40
2019-01-09T08:22:39.178Z,-1.30
2019-01-09T08:25:08.507Z,-1.30
2019-01-09T08:27:38.029Z,-1.30
2019-01-09T08:30:09.155Z,-1.40
2019-01-09T08:32:38.750Z,-1.30
2019-01-09T08:35:08.588Z,-1.30
2019-01-09T08:37:37.982Z,-1.40
2019-01-09T08:40:09.155Z,-1.40
2019-01-09T08:42:38.515Z,-1.30
2019-01-09T08:45:08.958Z,-1.30
2019-01-09T08:47:38.365Z,-1.30
2019-01-09T08:50:09.083Z,-1.30
2019-01-09T08:52:38.552Z,-1.30
2019-01-09T08:55:09.156Z,-1.30
2019-01-09T08:57:38.559Z,-1.30
2019-01-09T09:00:10.909Z,-1.20
2019-01-09T09:02:40.326Z,-1.20
2019-01-09T09:05:10.427Z,-1.10
2019-01-09T09:07:40.818Z,-1.20
2019-01-09T09:10:12.586Z,-1.40
2019-01-09T09:12:42.053Z,-1.30
2019-01-09T09:15:13.530Z,-1.30
2019-01-09T09:17:42.987Z,-1.30
2019-01-09T09:20:12.880Z,-1.30
2019-01-09T09:22:42.485Z,-1.30
2019-01-09T09:25:11.869Z,-1.30
2019-01-09T09:27:41.382Z,-1.10
2019-01-09T09:30:12.346Z,-1.10
2019-01-09T09:33:00.773Z,-1.00
2019-01-09T09:35:30.202Z,-1.20
2019-01-09T09:37:59.619Z,-1.00
2019-01-09T09:40:29.073Z,-1.10
2019-01-09T09:42:58.541Z,-1.10
2019-01-09T09:45:27.825Z,-1.00
2019-01-09T09:47:57.332Z,-1.00
2019-01-09T09:50:26.868Z,-1.00
2019-01-09T09:52:56.279Z,-1.00
2019-01-09T09:55:25.735Z,-0.90
2019-01-09T09:57:55.168Z,-0.80
2019-01-09T10:00:24.640Z,-0.80
2019-01-09T10:02:54.068Z,-0.80
2019-01-09T10:05:23.438Z,-0.60
2019-01-09T10:07:52.971Z,-0.60
2019-01-09T10:10:23.143Z,-0.50
2019-01-09T10:12:52.566Z,-0.40
2019-01-09T10:15:21.921Z,-0.40
2019-01-09T10:17:51.377Z,-0.70
2019-01-09T10:20:20.727Z,-0.70
2019-01-09T10:22:50.148Z,-0.60
2019-01-09T10:25:19.677Z,-0.50
2019-01-09T10:27:49.049Z,-0.50
2019-01-09T10:30:19.511Z,-0.50
2019-01-09T10:32:49.025Z,-0.40
2019-01-09T10:35:18.431Z,-0.50
2019-01-09T10:37:48.450Z,-0.40
2019-01-09T10:40:19.167Z,-0.40
2019-01-09T10:42:48.928Z,-0.40
2019-01-09T10:45:20.675Z,-0.60
2019-01-09T10:47:50.225Z,-0.70
2019-01-09T10:50:20.091Z,-0.60
2019-01-09T10:52:49.515Z,-0.70
2019-01-09T10:55:19.460Z,-0.80
2019-01-09T10:57:48.968Z,-0.90
2019-01-09T11:00:23.578Z,-0.80
2019-01-09T11:02:52.902Z,-0.90
2019-01-09T11:05:22.593Z,-1.00
2019-01-09T11:07:51.954Z,-0.80
2019-01-09T11:10:21.721Z,-0.70
2019-01-09T11:12:51.080Z,-0.80
2019-01-09T11:15:20.658Z,-0.70
2019-01-09T11:17:50.086Z,-0.70
2019-01-09T11:20:21.089Z,-0.60
2019-01-09T11:22:50.559Z,-0.60
2019-01-09T11:25:25.589Z,-0.50
2019-01-09T11:27:54.950Z,-0.70
2019-01-09T11:30:24.847Z,-0.60
2019-01-09T11:32:54.278Z,-0.50
2019-01-09T11:35:25.829Z,-0.50
2019-01-09T11:37:55.281Z,-0.60
2019-01-09T11:40:24.739Z,-0.60
2019-01-09T11:42:54.233Z,-0.60
2019-01-09T11:45:23.691Z,-0.70
2019-01-09T11:47:53.202Z,-0.60
2019-01-09T11:50:22.537Z,-0.80
2019-01-09T11:52:52.012Z,-0.80
2019-01-09T11:55:21.378Z,-0.80
2019-01-09T11:57:50.846Z,-0.80
2019-01-09T12:00:23.080Z,-0.80
2019-01-09T12:02:52.543Z,-1.00
2019-01-09T12:05:22.122Z,-0.90
2019-01-09T12:07:51.569Z,-0.90
2019-01-09T12:10:29.939Z,-1.00
2019-01-09T12:12:53.633Z,-1.10
2019-01-09T12:15:23.181Z,-1.10
2019-01-09T12:17:52.609Z,-1.10
2019-01-09T12:20:22.236Z,-1.10
2019-01-09T12:22:51.714Z,-1.10
2019-01-09T12:25:21.133Z,-1.10
2019-01-09T12:27:50.650Z,-1.00
2019-01-09T12:30:25.498Z,-1.10
2019-01-09T12:32:55.199Z,-1.10
2019-01-09T12:35:24.769Z,-1.00
2019-01-09T12:37:54.251Z,-1.00
2019-01-09T12:40:42.686Z,-0.90
2019-01-09T12:43:12.067Z,-0.90
2019-01-09T12:45:41.470Z,-0.90
2019-01-09T12:48:10.871Z,-1.00
2019-01-09T12:50:40.315Z,-0.90
2019-01-09T12:53:09.755Z,-0.90
2019-01-09T12:58:33.683Z,-1.10
2019-01-09T13:01:03.143Z,-1.10
2019-01-09T13:03:32.625Z,-1.20
2019-01-09T13:06:02.098Z,-1.10
2019-01-09T13:08:31.531Z,-1.00
2019-01-09T13:11:00.934Z,-1.20
2019-01-09T13:13:30.429Z,-1.10
2019-01-09T13:15:59.832Z,-1.20
2019-01-09T13:18:29.430Z,-1.30
2019-01-09T13:20:59.075Z,-1.30
2019-01-09T13:23:28.469Z,-1.40
2019-01-09T13:25:57.903Z,-1.40
2019-01-09T13:28:28.424Z,-1.40
2019-01-09T13:30:57.806Z,-1.40
2019-01-09T13:33:27.252Z,-1.50
2019-01-09T13:35:56.610Z,-1.50
2019-01-09T13:38:26.061Z,-1.50
2019-01-09T13:40:56.446Z,-1.50
2019-01-09T13:43:25.914Z,-1.60
2019-01-09T13:45:55.439Z,-1.60
2019-01-09T13:48:24.933Z,-1.60
2019-01-09T13:50:54.341Z,-1.60
2019-01-09T13:53:23.784Z,-1.70
2019-01-09T13:55:53.317Z,-1.70
2019-01-09T13:58:22.659Z,-1.80
2019-01-09T14:00:52.183Z,-1.70
2019-01-09T14:03:22.622Z,-1.70
2019-01-09T14:05:53.015Z,-1.80
2019-01-09T14:08:22.634Z,-1.80
2019-01-09T14:10:52.136Z,-1.80
2019-01-09T14:13:21.542Z,-1.80
2019-01-09T14:15:50.989Z,-1.80
2019-01-09T14:18:20.334Z,-1.70
2019-01-09T14:20:49.921Z,-1.80
2019-01-09T14:23:19.391Z,-1.80
2019-01-09T14:25:48.815Z,-1.70
2019-01-09T14:28:18.249Z,-1.70
2019-01-09T14:30:47.731Z,-1.70
2019-01-09T14:33:17.193Z,-1.80
2019-01-09T14:35:46.606Z,-1.70
2019-01-09T14:38:15.938Z,-1.70
2019-01-09T14:40:45.426Z,-1.70
2019-01-09T14:43:14.917Z,-1.60
2019-01-09T14:45:44.267Z,-1.60
2019-01-09T14:48:13.699Z,-1.70
2019-01-09T14:50:43.124Z,-1.70
2019-01-09T14:53:12.572Z,-1.70
2019-01-09T14:55:42.052Z,-1.70
2019-01-09T14:58:11.455Z,-1.80
2019-01-09T15:00:40.902Z,-1.80
2019-01-09T15:03:10.455Z,-1.80
2019-01-09T15:05:39.872Z,-1.90
2019-01-09T15:08:09.268Z,-2.00
2019-01-09T15:10:38.711Z,-2.10
2019-01-09T15:13:08.090Z,-2.10
2019-01-09T15:15:37.535Z,-2.10
2019-01-09T15:18:06.878Z,-2.10
2019-01-09T15:20:36.282Z,-2.10
2019-01-09T15:23:05.741Z,-2.10
2019-01-09T15:25:35.390Z,-2.20
2019-01-09T15:28:04.846Z,-2.20
2019-01-09T15:30:34.246Z,-2.20
2019-01-09T15:33:03.613Z,-2.20
2019-01-09T15:35:33.055Z,-2.30
2019-01-09T15:38:02.880Z,-2.20
2019-01-09T15:40:32.810Z,-2.20
2019-01-09T15:43:02.229Z,-2.20
2019-01-09T15:45:31.631Z,-2.20
2019-01-09T15:48:01.062Z,-2.20
2019-01-09T15:50:30.447Z,-2.20
2019-01-09T15:53:00.129Z,-2.20
2019-01-09T15:55:29.540Z,-2.20
2019-01-09T15:57:58.943Z,-2.20
2019-01-09T16:00:34.430Z,-2.10
2019-01-09T16:03:04.614Z,-2.10
2019-01-09T16:05:34.017Z,-2.20
2019-01-09T16:08:03.429Z,-2.20
2019-01-09T16:10:32.878Z,-2.20
2019-01-09T16:13:02.234Z,-2.10
2019-01-09T16:15:31.671Z,-2.20
2019-01-09T16:18:01.070Z,-2.20
2019-01-09T16:20:30.597Z,-2.20
2019-01-09T16:22:59.940Z,-2.20
2019-01-09T16:25:29.382Z,-2.20
2019-01-09T16:27:58.726Z,-2.20
2019-01-09T16:30:38.435Z,-2.30
2019-01-09T16:33:07.798Z,-2.30
2019-01-09T16:35:37.262Z,-2.30
2019-01-09T16:38:06.745Z,-2.30
2019-01-09T16:40:36.174Z,-2.40
2019-01-09T16:43:05.647Z,-2.40
2019-01-09T16:45:35.172Z,-2.50
2019-01-09T16:48:04.787Z,-2.40
2019-01-09T16:50:34.229Z,-2.40
2019-01-09T16:53:03.594Z,-2.50
2019-01-09T16:55:33.063Z,-2.50
2019-01-09T16:58:02.561Z,-2.60
2019-01-09T17:00:32.477Z,-2.50
2019-01-09T17:03:01.964Z,-2.50
2019-01-09T17:05:31.484Z,-2.60
2019-01-09T17:08:01.330Z,-2.60
2019-01-09T17:10:32.634Z,-2.60
2019-01-09T17:13:01.949Z,-2.60
2019-01-09T17:15:31.382Z,-2.70
2019-01-09T17:18:01.102Z,-2.70
2019-01-09T17:20:30.694Z,-2.70
2019-01-09T17:23:00.338Z,-2.80
2019-01-09T17:25:29.878Z,-2.70
2019-01-09T17:27:59.377Z,-2.70
2019-01-09T17:30:29.463Z,-2.70
2019-01-09T17:32:58.999Z,-2.80
2019-01-09T17:35:28.421Z,-2.80
2019-01-09T17:37:57.854Z,-2.90
2019-01-09T17:40:27.306Z,-2.90
2019-01-09T17:42:56.889Z,-2.90
2019-01-09T17:45:26.392Z,-2.80
2019-01-09T17:47:55.945Z,-2.80
2019-01-09T17:50:31.333Z,-2.90
2019-01-09T17:53:01.123Z,-3.00
2019-01-09T17:55:30.603Z,-3.00
2019-01-09T17:58:00.082Z,-3.00
2019-01-09T18:00:32.806Z,-3.00
2019-01-09T18:03:02.742Z,-3.00
2019-01-09T18:05:32.132Z,-3.00
2019-01-09T18:08:10.127Z,-3.10
2019-01-09T18:10:32.901Z,-3.10
2019-01-09T18:13:02.429Z,-3.00
2019-01-09T18:15:32.184Z,-3.00
2019-01-09T18:18:01.779Z,-3.10
2019-01-09T18:20:31.300Z,-3.10
2019-01-09T18:23:00.729Z,-3.10
2019-01-09T18:25:31.352Z,-3.10
2019-01-09T18:28:00.992Z,-3.20
2019-01-09T18:31:07.007Z,-3.10
2019-01-09T18:33:46.356Z,-3.20
2019-01-09T18:37:08.788Z,-3.20
2019-01-09T18:40:26.433Z,-3.20
2019-01-09T18:43:26.815Z,-3.20
2019-01-09T18:46:22.026Z,-3.30
2019-01-09T18:49:44.762Z,-3.20
2019-01-09T18:52:26.510Z,-3.30
2019-01-09T18:54:56.235Z,-3.30
2019-01-09T18:57:25.636Z,-3.30
2019-01-09T18:59:55.051Z,-3.30
2019-01-09T19:02:24.551Z,-3.30
2019-01-09T19:04:54.320Z,-3.30
2019-01-09T19:07:23.692Z,-3.30
2019-01-09T19:09:53.154Z,-3.30
2019-01-09T19:12:22.647Z,-3.40
2019-01-09T19:14:52.135Z,-3.40
2019-01-09T19:17:21.765Z,-3.40
2019-01-09T19:19:51.463Z,-3.40
2019-01-09T19:22:21.043Z,-3.40
2019-01-09T19:24:50.559Z,-3.40
2019-01-09T19:27:19.983Z,-3.50
2019-01-09T19:29:49.668Z,-3.50
2019-01-09T19:32:19.121Z,-3.50
2019-01-09T19:34:48.699Z,-3.60
2019-01-09T19:37:18.199Z,-3.60
2019-01-09T19:39:47.691Z,-3.60
2019-01-09T19:42:17.318Z,-3.60
2019-01-09T19:44:46.844Z,-3.60
2019-01-09T19:47:16.384Z,-3.60
2019-01-09T19:49:46.100Z,-3.60
2019-01-09T19:52:15.834Z,-3.60
2019-01-09T19:54:45.730Z,-3.60
2019-01-09T19:57:15.157Z,-3.60
2019-01-09T19:59:44.550Z,-3.70
2019-01-09T20:02:14.008Z,-3.70
2019-01-09T20:04:43.584Z,-3.70
2019-01-09T20:07:13.092Z,-3.70
2019-01-09T20:09:42.625Z,-3.80
2019-01-09T20:12:12.214Z,-3.80
2019-01-09T20:14:41.894Z,-3.80
2019-01-09T20:17:11.278Z,-3.80
2019-01-09T20:19:40.732Z,-3.90
2019-01-09T20:22:10.358Z,-3.90
2019-01-09T20:24:39.946Z,-4.00
2019-01-09T20:27:09.437Z,-4.00
2019-01-09T20:29:39.028Z,-3.90
2019-01-09T20:32:08.753Z,-4.00
2019-01-09T20:34:38.130Z,-3.90
2019-01-09T20:37:07.712Z,-4.10
2019-01-09T20:39:37.293Z,-4.10
2019-01-09T20:42:06.777Z,-4.10
2019-01-09T20:44:36.177Z,-4.10
2019-01-09T20:47:05.747Z,-4.10
2019-01-09T20:49:35.253Z,-4.20
2019-01-09T20:52:05.280Z,-4.20
2019-01-09T20:54:34.771Z,-4.30
2019-01-09T20:57:05.423Z,-4.40
2019-01-09T20:59:35.190Z,-4.40
2019-01-09T21:02:04.813Z,-4.40
2019-01-09T21:04:34.330Z,-4.40
2019-01-09T21:07:03.869Z,-4.40
2019-01-09T21:09:33.415Z,-4.40
2019-01-09T21:12:03.128Z,-4.40
2019-01-09T21:14:32.728Z,-4.40
2019-01-09T21:17:02.155Z,-4.40
2019-01-09T21:19:31.804Z,-4.30
2019-01-09T21:22:01.214Z,-4.40
2019-01-09T21:24:30.553Z,-4.40
2019-01-09T21:27:00.363Z,-4.30
2019-01-09T21:29:29.774Z,-4.30
2019-01-09T21:31:59.242Z,-4.40
2019-01-09T21:34:28.578Z,-4.40
2019-01-09T21:36:57.966Z,-4.50
2019-01-09T21:39:27.326Z,-4.50
2019-01-09T21:41:56.732Z,-4.40
2019-01-09T21:44:26.082Z,-4.50
2019-01-09T21:46:55.470Z,-4.50
2019-01-09T21:49:25.080Z,-4.40
2019-01-09T21:51:54.482Z,-4.40
2019-01-09T21:54:23.926Z,-4.50
2019-01-09T21:56:53.344Z,-4.60
2019-01-09T21:59:23.346Z,-4.50
2019-01-09T22:01:53.028Z,-4.50
2019-01-09T22:04:22.449Z,-4.60
2019-01-09T22:06:51.895Z,-4.60
2019-01-09T22:09:21.422Z,-4.60
2019-01-09T22:11:50.959Z,-4.60
2019-01-09T22:14:20.437Z,-4.60
2019-01-09T22:16:49.890Z,-4.60
2019-01-09T22:19:19.456Z,-4.50
2019-01-09T22:21:49.038Z,-4.60
2019-01-09T22:24:18.634Z,-4.60
2019-01-09T22:26:48.057Z,-4.70
2019-01-09T22:29:17.459Z,-4.60
2019-01-09T22:31:47.039Z,-4.70
2019-01-09T22:34:16.459Z,-4.60
2019-01-09T22:36:45.906Z,-4.70
2019-01-09T22:39:15.462Z,-4.80
2019-01-09T22:41:45.172Z,-4.70
2019-01-09T22:44:14.597Z,-4.80
2019-01-09T22:46:44.056Z,-4.80
2019-01-09T22:49:13.342Z,-4.80
2019-01-09T22:51:42.978Z,-4.70
2019-01-09T22:54:12.450Z,-4.70
2019-01-09T22:56:41.991Z,-4.80
2019-01-09T22:59:11.456Z,-4.80
2019-01-09T23:01:40.799Z,-4.90
2019-01-09T23:04:10.208Z,-4.90
2019-01-09T23:06:39.684Z,-4.90
2019-01-09T23:09:10.499Z,-4.90
2019-01-09T23:11:39.890Z,-4.80
2019-01-09T23:14:09.306Z,-4.90
2019-01-09T23:16:38.687Z,-4.90
2019-01-09T23:19:08.169Z,-5.00
2019-01-09T23:21:37.735Z,-4.90
2019-01-09T23:24:07.196Z,-5.00
2019-01-09T23:26:36.588Z,-4.90
2019-01-09T23:29:06.849Z,-4.90
2019-01-09T23:31:36.369Z,-4.90
2019-01-09T23:34:05.793Z,-4.90
2019-01-09T23:36:35.195Z,-4.90
2019-01-09T23:39:09.107Z,-5.00
2019-01-09T23:41:38.791Z,-5.00
2019-01-09T23:44:08.702Z,-5.10
2019-01-09T23:46:38.204Z,-5.00
2019-01-09T23:49:07.625Z,-5.00
2019-01-09T23:51:37.033Z,-5.00
2019-01-09T23:54:06.720Z,-5.00
2019-01-09T23:56:36.337Z,-5.00
2019-01-09T23:59:05.750Z,-5.00
